Palmer, PR (00721)

12:39 AM AST on August 25, 2016 (GMT -0400)
Ciudad Jardin | | Change Station

Elev 10 ft 18.37 °N, 65.93 °W | Updated 13 minutes ago

Scattered Clouds
Scattered Clouds
82.9 °F
Feels Like 91 °F
N
0.0
Wind Variable Wind from SSE
Gusts 0.0 mph

Today
High -- | Low -- °F
--% Chance of Precip.
Yesterday
High -- | Low -- °F
Precip. -- in
Pressure 29.95 in
Visibility 10.0 miles
Clouds Scattered Clouds 2100 ft
Heat Index 91 °F
Dew Point 76 °F
Humidity 80%
Rainfall 0.00 in
Snow Depth Not available.
6:07 AM 6:42 PM
Waning Gibbous, 50% visible
SPECI TJNR 250417Z AUTO 15011KT 10SM SCT021 28/25 A2995 RMK AO2 T02780250 PNO
Pressure 29.95 in
Visibility 10.0 miles
Clouds Scattered Clouds 2100 ft
Heat Index 91 °F
Dew Point 76 °F
Humidity 80%
Rainfall 0.00 in
Snow Depth Not available.
6:07 AM 6:42 PM
Waning Gibbous, 50% visible
SPECI TJNR 250417Z AUTO 15011KT 10SM SCT021 28/25 A2995 RMK AO2 T02780250 PNO

10-Day Weather Forecast

Almanac

Astronomy

Aug. 25, 2016 Rise Set
Actual Time
Civil Twilight
Nautical Twilight
Astronomical Twilight
Moon
Length of Visible Light
Length of Day
Tomorrow will be .
, % of the Moon is Illuminated

Today's Extremes

State Highs State Lows

Community

WunderPhotos

Upload Photos

1,934,796 photos uploaded!

WunderBlog® & News

Nearby

Air Quality

  Air Quality AQ Index Pollutant
Not available.

Snow Depth

Station Depth Elevation

Earthquake Activity

City Distance Mag. Time & Date
Minimum magnitude displayed is 2.5.

Coastal Water Temperatures

Place Temperature

Stations

Nearby Weather Stations

Station Location Temp. Windchill Dew Point Humidity Wind Precip. Elev Updated Type
                   

Watches & Warnings

There are currently no watches in effect.